createdAt,value
2018-09-01T00:00:52.240Z,77.23
2018-09-01T00:01:52.791Z,77.84
2018-09-01T00:02:52.157Z,77.61
2018-09-01T00:03:52.084Z,77.80
2018-09-01T00:04:52.036Z,77.89
2018-09-01T00:05:51.993Z,77.61
2018-09-01T00:06:51.938Z,77.70
2018-09-01T00:07:51.915Z,77.99
2018-09-01T00:08:51.839Z,77.89
2018-09-01T00:09:51.796Z,78.66
2018-09-01T00:10:51.740Z,77.80
2018-09-01T00:11:51.719Z,79.14
2018-09-01T00:12:51.644Z,78.37
2018-09-01T00:13:52.272Z,78.56
2018-09-01T00:14:51.549Z,78.52
2018-09-01T00:15:51.499Z,78.28
2018-09-01T00:16:51.472Z,78.72
2018-09-01T00:17:51.399Z,78.33
2018-09-01T00:18:51.351Z,78.52
2018-09-01T00:19:51.306Z,78.62
2018-09-01T00:20:51.253Z,79.00
2018-09-01T00:21:51.405Z,79.57
2018-09-01T00:22:51.180Z,79.38
2018-09-01T00:23:51.109Z,79.48
2018-09-01T00:24:51.065Z,79.38
2018-09-01T00:25:51.009Z,79.28
2018-09-01T00:26:50.965Z,79.19
2018-09-01T00:27:50.932Z,79.57
2018-09-01T00:28:50.869Z,79.57
2018-09-01T00:29:50.812Z,80.15
2018-09-01T00:30:50.791Z,79.82
2018-09-01T00:31:50.721Z,80.43
2018-09-01T00:32:50.667Z,80.72
2018-09-01T00:33:50.614Z,80.62
2018-09-01T00:34:50.601Z,79.86
2018-09-01T00:35:50.517Z,80.72
2018-09-01T00:36:50.463Z,81.67
2018-09-01T00:37:50.417Z,80.87
2018-09-01T00:38:50.405Z,80.87
2018-09-01T00:39:50.320Z,80.77
2018-09-01T00:40:50.271Z,81.82
2018-09-01T00:41:50.222Z,81.15
2018-09-01T00:42:50.173Z,81.25
2018-09-01T00:43:50.171Z,81.73
2018-09-01T00:44:50.074Z,82.30
2018-09-01T00:45:50.023Z,81.73
2018-09-01T00:46:49.974Z,82.30
2018-09-01T00:47:49.925Z,82.49
2018-09-01T00:48:49.908Z,82.40
2018-09-01T00:49:49.826Z,82.11
2018-09-01T00:50:49.775Z,81.92
2018-09-01T00:51:49.764Z,81.82
2018-09-01T00:52:49.677Z,81.44
2018-09-01T00:53:49.669Z,81.15
2018-09-01T00:54:49.580Z,81.44
2018-09-01T00:55:49.563Z,82.11
2018-09-01T00:56:49.479Z,82.30
2018-09-01T00:57:49.430Z,81.88
2018-09-01T00:58:49.403Z,82.35
2018-09-01T00:59:49.332Z,82.64
2018-09-01T01:00:49.284Z,82.73
2018-09-01T01:01:49.264Z,82.83
2018-09-01T01:02:49.188Z,82.54
2018-09-01T01:03:49.134Z,82.83
2018-09-01T01:04:49.113Z,82.45
2018-09-01T01:05:49.034Z,82.35
2018-09-01T01:06:48.989Z,83.02
2018-09-01T01:07:48.935Z,83.50
2018-09-01T01:08:48.884Z,83.40
2018-09-01T01:09:49.009Z,83.31
2018-09-01T01:10:48.789Z,82.92
2018-09-01T01:11:48.741Z,83.31
2018-09-01T01:12:48.686Z,83.97
2018-09-01T01:13:48.789Z,83.40
2018-09-01T01:14:48.611Z,83.36
2018-09-01T01:15:48.569Z,83.55
2018-09-01T01:16:48.706Z,83.93
2018-09-01T01:17:48.621Z,84.31
2018-09-01T01:18:48.385Z,84.88
2018-09-01T01:19:48.336Z,83.93
2018-09-01T01:20:48.287Z,84.60
2018-09-01T01:21:48.274Z,84.41
2018-09-01T01:22:48.187Z,84.69
2018-09-01T01:23:48.135Z,84.79
2018-09-01T01:24:48.089Z,85.08
2018-09-01T01:25:48.035Z,84.69
2018-09-01T01:26:48.237Z,84.41
2018-09-01T01:27:47.964Z,85.03
2018-09-01T01:28:47.884Z,84.88
2018-09-01T01:29:47.837Z,85.41
2018-09-01T01:30:47.786Z,85.51
2018-09-01T01:31:47.737Z,85.80
2018-09-01T01:32:47.706Z,85.36
2018-09-01T01:33:47.632Z,84.41
2018-09-01T01:34:47.591Z,84.31
2018-09-01T01:35:47.534Z,84.60
2018-09-01T01:36:47.485Z,84.31
2018-09-01T01:37:47.464Z,84.03
2018-09-01T01:38:47.382Z,84.50
2018-09-01T01:39:47.332Z,84.79
2018-09-01T01:40:47.554Z,84.88
2018-09-01T01:41:47.232Z,84.41
2018-09-01T01:42:47.222Z,84.94
2018-09-01T01:43:47.133Z,83.89
2018-09-01T01:44:47.080Z,84.65
2018-09-01T01:45:47.032Z,84.56
2018-09-01T01:46:46.980Z,84.36
2018-09-01T01:47:46.973Z,84.65
2018-09-01T01:48:46.878Z,84.84
2018-09-01T01:49:46.831Z,85.80
2018-09-01T01:50:46.782Z,85.51
2018-09-01T01:51:46.730Z,85.60
2018-09-01T01:52:46.864Z,86.08
2018-09-01T01:53:46.628Z,86.18
2018-09-01T01:54:46.576Z,86.08
2018-09-01T01:55:46.527Z,85.70
2018-09-01T01:56:46.507Z,86.13
2018-09-01T01:57:46.434Z,86.13
2018-09-01T01:58:46.662Z,86.13
2018-09-01T01:59:46.328Z,86.32
2018-09-01T02:00:46.276Z,86.32
2018-09-01T02:01:46.225Z,86.22
2018-09-01T02:02:46.181Z,86.80
2018-09-01T02:03:49.356Z,85.75
2018-09-01T02:04:46.072Z,85.37
2018-09-01T02:05:46.020Z,85.37
2018-09-01T02:06:45.972Z,86.04
2018-09-01T02:07:45.920Z,86.22
2018-09-01T02:08:45.900Z,86.04
2018-09-01T02:09:45.861Z,86.99
2018-09-01T02:10:45.764Z,86.99
2018-09-01T02:11:45.717Z,87.18
2018-09-01T02:12:45.666Z,87.37
2018-09-01T02:13:45.621Z,86.99
2018-09-01T02:14:45.613Z,86.99
2018-09-01T02:15:45.512Z,86.51
2018-09-01T02:16:45.464Z,86.99
2018-09-01T02:17:45.547Z,86.61
2018-09-01T02:18:45.361Z,86.70
2018-09-01T02:19:45.356Z,86.51
2018-09-01T02:20:45.260Z,86.70
2018-09-01T02:21:45.210Z,87.08
2018-09-01T02:22:45.158Z,87.85
2018-09-01T02:23:45.107Z,88.23
2018-09-01T02:24:45.089Z,87.94
2018-09-01T02:25:45.038Z,87.85
2018-09-01T02:26:44.962Z,87.27
2018-09-01T02:27:44.907Z,87.08
2018-09-01T02:28:44.852Z,86.99
2018-09-01T02:29:44.803Z,87.08
2018-09-01T02:30:44.790Z,86.99
2018-09-01T02:31:44.702Z,87.65
2018-09-01T02:32:44.648Z,87.85
2018-09-01T02:33:44.597Z,87.46
2018-09-01T02:34:44.549Z,88.13
2018-09-01T02:35:44.528Z,87.85
2018-09-01T02:36:44.444Z,87.27
2018-09-01T02:37:44.396Z,87.85
2018-09-01T02:38:44.344Z,87.46
2018-09-01T02:39:44.295Z,87.27
2018-09-01T02:40:44.272Z,88.32
2018-09-01T02:41:44.189Z,88.04
2018-09-01T02:42:44.137Z,87.75
2018-09-01T02:43:44.124Z,88.04
2018-09-01T02:44:44.038Z,88.13
2018-09-01T02:45:43.987Z,88.23
2018-09-01T02:46:43.940Z,87.75
2018-09-01T02:47:43.887Z,87.94
2018-09-01T02:48:43.866Z,88.23
2018-09-01T02:49:43.780Z,88.51
2018-09-01T02:50:43.734Z,88.51
2018-09-01T02:51:43.679Z,88.04
2018-09-01T02:52:43.664Z,88.13
2018-09-01T02:53:43.576Z,88.60
2018-09-01T02:54:43.683Z,88.42
2018-09-01T02:55:43.516Z,88.60
2018-09-01T02:56:43.424Z,88.23
2018-09-01T02:57:43.375Z,88.42
2018-09-01T02:58:43.505Z,88.70
2018-09-01T02:59:43.274Z,88.56
2018-09-01T03:00:43.251Z,88.51
2018-09-01T03:01:43.169Z,88.23
2018-09-01T03:02:43.118Z,88.18
2018-09-01T03:03:43.068Z,87.23
2018-09-01T03:04:43.045Z,87.32
2018-09-01T03:05:42.964Z,87.90
2018-09-01T03:06:42.952Z,87.99
2018-09-01T03:07:42.862Z,87.99
2018-09-01T03:08:42.813Z,88.85
2018-09-01T03:09:43.003Z,88.75
2018-09-01T03:10:42.708Z,90.56
2018-09-01T03:11:42.688Z,90.47
2018-09-01T03:12:42.602Z,89.42
2018-09-01T03:13:42.552Z,89.42
2018-09-01T03:14:42.534Z,90.18
2018-09-01T03:15:42.451Z,90.18
2018-09-01T03:16:42.402Z,89.80
2018-09-01T03:17:42.497Z,89.89
2018-09-01T03:18:42.339Z,90.08
2018-09-01T03:19:42.336Z,90.56
2018-09-01T03:20:42.250Z,90.28
2018-09-01T03:21:42.468Z,89.61
2018-09-01T03:22:42.122Z,89.14
2018-09-01T03:23:42.312Z,89.70
2018-09-01T03:24:42.040Z,89.70
2018-09-01T03:25:41.941Z,89.42
2018-09-01T03:26:41.885Z,89.80
2018-09-01T03:27:41.865Z,89.61
2018-09-01T03:28:41.783Z,90.47
2018-09-01T03:29:41.730Z,90.37
2018-09-01T03:30:41.709Z,90.08
2018-09-01T03:31:41.629Z,89.32
2018-09-01T03:32:41.578Z,89.75
2018-09-01T03:33:41.530Z,89.47
2018-09-01T03:34:41.473Z,89.47
2018-09-01T03:35:41.461Z,89.37
2018-09-01T03:36:41.368Z,89.37
2018-09-01T03:37:41.321Z,89.00
2018-09-01T03:38:41.267Z,89.09
2018-09-01T03:39:41.218Z,89.56
2018-09-01T03:40:41.197Z,89.75
2018-09-01T03:41:41.112Z,90.04
2018-09-01T03:42:41.060Z,90.80
2018-09-01T03:43:41.010Z,90.42
2018-09-01T03:44:40.961Z,89.66
2018-09-01T03:45:40.936Z,89.37
2018-09-01T03:46:40.860Z,90.23
2018-09-01T03:47:40.804Z,90.47
2018-09-01T03:48:40.752Z,90.04
2018-09-01T03:49:40.701Z,89.85
2018-09-01T03:50:40.679Z,90.52
2018-09-01T03:51:40.627Z,90.23
2018-09-01T03:52:40.543Z,90.14
2018-09-01T03:53:40.492Z,90.61
2018-09-01T03:54:40.441Z,90.61
2018-09-01T03:55:40.388Z,90.70
2018-09-01T03:56:40.369Z,90.52
2018-09-01T03:57:40.316Z,91.18
2018-09-01T03:58:40.235Z,90.99
2018-09-01T03:59:40.230Z,91.18
2018-09-01T04:00:40.133Z,91.28
2018-09-01T04:01:40.078Z,91.28
2018-09-01T04:02:40.063Z,91.28
2018-09-01T04:03:40.017Z,91.08
2018-09-01T04:04:39.924Z,91.08
2018-09-01T04:05:39.875Z,91.18
2018-09-01T04:06:39.822Z,90.99
2018-09-01T04:07:39.769Z,90.89
2018-09-01T04:08:39.751Z,90.61
2018-09-01T04:09:39.665Z,90.42
2018-09-01T04:10:39.647Z,91.28
2018-09-01T04:11:39.562Z,91.47
2018-09-01T04:12:39.509Z,91.08
2018-09-01T04:13:39.458Z,91.75
2018-09-01T04:14:39.446Z,91.28
2018-09-01T04:15:39.355Z,90.99
2018-09-01T04:16:39.302Z,91.08
2018-09-01T04:17:39.251Z,91.18
2018-09-01T04:18:39.203Z,90.99
2018-09-01T04:19:39.185Z,91.18
2018-09-01T04:20:39.097Z,90.61
2018-09-01T04:21:39.047Z,91.08
2018-09-01T04:22:38.991Z,91.47
2018-09-01T04:23:38.938Z,91.56
2018-09-01T04:24:38.923Z,91.08
2018-09-01T04:25:38.870Z,91.18
2018-09-01T04:26:38.787Z,91.08
2018-09-01T04:27:38.733Z,90.89
2018-09-01T04:28:38.684Z,91.66
2018-09-01T04:29:38.628Z,91.66
2018-09-01T04:30:38.625Z,91.18
2018-09-01T04:31:38.525Z,91.56
2018-09-01T04:32:38.472Z,92.41
2018-09-01T04:33:38.421Z,91.94
2018-09-01T04:34:38.368Z,91.80
2018-09-01T04:35:38.349Z,91.75
2018-09-01T04:36:38.264Z,92.13
2018-09-01T04:37:38.214Z,92.03
2018-09-01T04:38:38.162Z,92.03
2018-09-01T04:39:38.108Z,92.03
2018-09-01T04:40:38.089Z,92.41
2018-09-01T04:41:38.006Z,91.89
2018-09-01T04:42:37.986Z,92.41
2018-09-01T04:43:37.906Z,92.13
2018-09-01T04:44:37.850Z,91.80
2018-09-01T04:45:37.801Z,92.18
2018-09-01T04:46:37.743Z,91.52
2018-09-01T04:47:37.727Z,91.52
2018-09-01T04:48:37.640Z,91.52
2018-09-01T04:49:37.626Z,91.33
2018-09-01T04:50:37.567Z,92.18
2018-09-01T04:51:37.485Z,92.37
2018-09-01T04:52:37.471Z,91.47
2018-09-01T04:53:37.384Z,92.13
2018-09-01T04:54:37.332Z,91.94
2018-09-01T04:55:37.275Z,92.22
2018-09-01T04:56:37.222Z,92.13
2018-09-01T04:57:37.219Z,92.41
2018-09-01T04:58:37.119Z,92.51
2018-09-01T04:59:37.070Z,92.61
2018-09-01T05:00:37.018Z,91.94
2018-09-01T05:01:36.964Z,92.41
2018-09-01T05:02:36.943Z,92.80
2018-09-01T05:03:36.860Z,92.13
2018-09-01T05:04:36.807Z,92.03
2018-09-01T05:05:36.754Z,92.51
2018-09-01T05:06:36.735Z,92.13
2018-09-01T05:07:36.651Z,91.75
2018-09-01T05:08:36.605Z,91.47
2018-09-01T05:09:36.549Z,91.66
2018-09-01T05:10:36.493Z,91.13
2018-09-01T05:11:36.481Z,91.56
2018-09-01T05:12:36.390Z,92.03
2018-09-01T05:13:36.337Z,92.13
2018-09-01T05:14:36.292Z,92.22
2018-09-01T05:15:36.237Z,92.51
2018-09-01T05:16:36.215Z,92.61
2018-09-01T05:17:36.131Z,92.61
2018-09-01T05:18:36.078Z,92.41
2018-09-01T05:19:36.057Z,91.94
2018-09-01T05:20:35.971Z,91.61
2018-09-01T05:21:35.923Z,90.94
2018-09-01T05:22:35.902Z,91.18
2018-09-01T05:23:35.816Z,91.56
2018-09-01T05:24:35.765Z,92.22
2018-09-01T05:25:35.722Z,92.22
2018-09-01T05:26:35.662Z,92.32
2018-09-01T05:27:35.643Z,92.22
2018-09-01T05:28:35.563Z,91.94
2018-09-01T05:29:35.505Z,91.85
2018-09-01T05:30:35.455Z,91.85
2018-09-01T05:31:35.435Z,91.66
2018-09-01T05:32:35.377Z,91.08
2018-09-01T05:33:35.295Z,90.99
2018-09-01T05:34:35.246Z,91.18
2018-09-01T05:35:35.192Z,91.37
2018-09-01T05:36:35.181Z,91.28
2018-09-01T05:37:35.129Z,91.08
2018-09-01T05:38:35.037Z,91.56
2018-09-01T05:39:34.988Z,92.13
2018-09-01T05:40:34.932Z,92.41
2018-09-01T05:41:34.879Z,92.03
2018-09-01T05:42:34.865Z,92.03
2018-09-01T05:43:34.782Z,92.51
2018-09-01T05:44:34.722Z,92.51
2018-09-01T05:45:34.902Z,92.18
2018-09-01T05:46:34.618Z,92.03
2018-09-01T05:47:34.600Z,91.99
2018-09-01T05:48:34.547Z,92.18
2018-09-01T05:49:34.467Z,91.99
2018-09-01T05:50:34.413Z,91.42
2018-09-01T05:51:34.360Z,91.51
2018-09-01T05:52:34.305Z,91.70
2018-09-01T05:53:34.287Z,91.22
2018-09-01T05:54:34.203Z,91.51
2018-09-01T05:55:34.151Z,90.94
2018-09-01T05:56:34.100Z,90.66
2018-09-01T05:57:34.046Z,90.66
2018-09-01T05:58:34.027Z,90.94
2018-09-01T05:59:33.947Z,90.47
2018-09-01T06:00:33.905Z,90.84
2018-09-01T06:01:33.840Z,90.47
2018-09-01T06:02:33.788Z,91.22
2018-09-01T06:03:33.771Z,91.42
2018-09-01T06:04:33.684Z,91.13
2018-09-01T06:05:33.665Z,91.22
2018-09-01T06:06:33.583Z,90.89
2018-09-01T06:07:33.531Z,91.37
2018-09-01T06:08:33.476Z,90.70
2018-09-01T06:09:33.429Z,90.61
2018-09-01T06:10:33.406Z,90.32
2018-09-01T06:11:33.323Z,90.13
2018-09-01T06:12:33.269Z,89.47
2018-09-01T06:13:33.252Z,90.32
2018-09-01T06:14:33.171Z,90.42
2018-09-01T06:15:33.116Z,90.22
2018-09-01T06:16:33.063Z,89.56
2018-09-01T06:17:33.150Z,89.65
2018-09-01T06:18:32.961Z,89.56
2018-09-01T06:19:32.908Z,90.42
2018-09-01T06:20:32.863Z,89.65
2018-09-01T06:21:32.808Z,89.65
2018-09-01T06:22:32.795Z,90.08
2018-09-01T06:23:32.706Z,90.27
2018-09-01T06:24:32.652Z,89.61
2018-09-01T06:25:32.599Z,89.70
2018-09-01T06:26:32.551Z,89.89
2018-09-01T06:27:32.540Z,89.41
2018-09-01T06:28:32.447Z,89.51
2018-09-01T06:29:32.396Z,89.32
2018-09-01T06:30:32.344Z,89.61
2018-09-01T06:31:32.293Z,89.13
2018-09-01T06:32:32.284Z,89.22
2018-09-01T06:33:32.188Z,89.41
2018-09-01T06:34:32.138Z,89.13
2018-09-01T06:35:32.089Z,88.37
2018-09-01T06:36:32.037Z,88.75
2018-09-01T06:37:32.140Z,88.60
2018-09-01T06:38:31.934Z,88.79
2018-09-01T06:39:31.883Z,87.93
2018-09-01T06:40:31.831Z,88.41
2018-09-01T06:41:31.778Z,87.93
2018-09-01T06:42:31.771Z,88.31
2018-09-01T06:43:31.678Z,88.41
2018-09-01T06:44:31.634Z,88.79
2018-09-01T06:45:31.577Z,88.31
2018-09-01T06:46:31.533Z,87.93
2018-09-01T06:47:31.526Z,87.93
2018-09-01T06:48:31.428Z,88.12
2018-09-01T06:49:31.374Z,88.12
2018-09-01T06:50:31.323Z,88.22
2018-09-01T06:51:31.317Z,88.03
2018-09-01T06:52:31.252Z,88.03
2018-09-01T06:53:31.169Z,87.93
2018-09-01T06:54:31.120Z,87.93
2018-09-01T06:55:31.100Z,88.31
2018-09-01T06:56:31.016Z,88.12
2018-09-01T06:57:30.968Z,88.03
2018-09-01T06:58:30.919Z,87.74
2018-09-01T06:59:30.864Z,87.84
2018-09-01T07:00:30.850Z,87.65
2018-09-01T07:01:30.796Z,87.40
2018-09-01T07:02:30.715Z,87.88
2018-09-01T07:03:30.662Z,86.93
2018-09-01T07:04:30.614Z,87.12
2018-09-01T07:05:30.565Z,86.74
2018-09-01T07:06:30.550Z,86.55
2018-09-01T07:07:30.461Z,86.55
2018-09-01T07:08:30.407Z,86.36
2018-09-01T07:09:30.364Z,87.21
2018-09-01T07:10:30.308Z,86.93
2018-09-01T07:11:30.301Z,87.12
2018-09-01T07:12:30.206Z,86.55
2018-09-01T07:13:30.155Z,86.55
2018-09-01T07:14:30.107Z,86.16
2018-09-01T07:15:30.059Z,86.45
2018-09-01T07:16:30.036Z,85.83
2018-09-01T07:17:29.954Z,86.02
2018-09-01T07:18:29.902Z,85.73
2018-09-01T07:19:29.854Z,85.83
2018-09-01T07:20:29.835Z,85.35
2018-09-01T07:21:29.754Z,85.45
2018-09-01T07:22:29.705Z,85.35
2018-09-01T07:23:29.653Z,85.25
2018-09-01T07:24:29.599Z,84.88
2018-09-01T07:25:29.584Z,84.88
2018-09-01T07:26:29.504Z,85.25
2018-09-01T07:27:29.491Z,84.78
2018-09-01T07:28:29.398Z,84.78
2018-09-01T07:29:29.352Z,85.25
2018-09-01T07:30:29.451Z,84.49
2018-09-01T07:31:29.640Z,84.78
2018-09-01T07:32:29.230Z,84.40
2018-09-01T07:33:29.151Z,84.44
2018-09-01T07:34:29.148Z,84.82
2018-09-01T07:35:29.048Z,84.72
2018-09-01T07:36:28.998Z,84.92
2018-09-01T07:37:28.949Z,84.72
2018-09-01T07:38:28.902Z,84.44
2018-09-01T07:39:28.902Z,84.34
2018-09-01T07:40:28.802Z,84.63
2018-09-01T07:41:28.749Z,84.34
2018-09-01T07:42:28.701Z,84.53
2018-09-01T07:43:28.652Z,83.96
2018-09-01T07:44:28.636Z,84.00
2018-09-01T07:45:28.561Z,83.81
2018-09-01T07:46:28.501Z,83.53
2018-09-01T07:47:28.485Z,83.05
2018-09-01T07:48:28.400Z,82.57
2018-09-01T07:49:28.351Z,82.48
2018-09-01T07:50:28.335Z,82.57
2018-09-01T07:51:28.255Z,82.48
2018-09-01T07:52:28.204Z,82.52
2018-09-01T07:53:28.188Z,82.61
2018-09-01T07:54:28.169Z,81.66
2018-09-01T07:55:28.056Z,81.47
2018-09-01T07:56:28.005Z,81.18
2018-09-01T07:57:27.955Z,80.80
2018-09-01T07:58:27.906Z,80.41
2018-09-01T07:59:27.888Z,80.65
2018-09-01T08:00:27.841Z,79.98
2018-09-01T08:01:27.769Z,79.73
2018-09-01T08:02:27.711Z,78.78
2018-09-01T08:03:27.662Z,77.95
2018-09-01T08:04:27.611Z,76.02
2018-09-01T08:05:27.595Z,73.47
2018-09-01T08:06:27.514Z,72.49
2018-09-01T08:07:27.569Z,70.03
2018-09-01T08:08:27.419Z,69.20
2018-09-01T08:09:27.371Z,66.74
2018-09-01T08:10:27.325Z,65.72
2018-09-01T08:11:27.276Z,64.92
2018-09-01T08:12:27.269Z,64.08
2018-09-01T08:13:27.179Z,61.68
2018-09-01T08:14:27.138Z,61.61
2018-09-01T08:15:27.089Z,59.72
2018-09-01T08:16:27.046Z,58.88
2018-09-01T08:17:27.041Z,57.05
2018-09-01T08:18:26.952Z,57.27
2018-09-01T08:19:26.907Z,56.43
2018-09-01T08:20:26.862Z,56.14
2018-09-01T08:21:26.817Z,54.53
2018-09-01T08:22:26.813Z,54.36
2018-09-01T08:23:26.733Z,53.81
2018-09-01T08:24:26.689Z,53.13
2018-09-01T08:25:26.641Z,52.58
2018-09-01T08:26:26.602Z,51.73
2018-09-01T08:27:26.599Z,49.15
2018-09-01T08:28:26.517Z,49.85
2018-09-01T08:29:26.474Z,48.49
2018-09-01T08:30:26.429Z,48.59
2018-09-01T08:31:26.393Z,48.71
2018-09-01T08:32:26.378Z,47.64
2018-09-01T08:33:26.362Z,47.64
2018-09-01T08:34:26.289Z,46.99
2018-09-01T08:35:26.254Z,46.43
2018-09-01T08:36:26.181Z,45.97
2018-09-01T08:37:26.139Z,45.10
2018-09-01T08:38:26.099Z,44.64
2018-09-01T08:39:26.063Z,44.34
2018-09-01T08:40:26.051Z,44.34
2018-09-01T08:41:25.977Z,43.27
2018-09-01T08:42:25.936Z,43.49
2018-09-01T08:43:25.896Z,43.59
2018-09-01T08:44:25.855Z,43.01
2018-09-01T08:45:25.906Z,42.33
2018-09-01T08:46:25.806Z,42.23
2018-09-01T08:47:25.735Z,42.71
2018-09-01T08:48:25.700Z,42.35
2018-09-01T08:49:25.738Z,41.77
2018-09-01T08:50:25.616Z,42.35
2018-09-01T08:51:25.693Z,42.95
2018-09-01T08:52:25.535Z,41.69
2018-09-01T08:53:25.498Z,40.54
2018-09-01T08:54:25.458Z,39.65
2018-09-01T08:55:25.461Z,40.72
2018-09-01T08:56:25.390Z,41.49
2018-09-01T08:57:25.338Z,41.13
2018-09-01T08:58:25.324Z,40.15
2018-09-01T08:59:25.264Z,40.34
2018-09-01T09:00:25.251Z,40.06
2018-09-01T09:01:25.177Z,39.08
2018-09-01T09:02:25.238Z,38.70
2018-09-01T09:03:25.164Z,39.65
2018-09-01T09:04:25.113Z,39.84
2018-09-01T09:05:25.072Z,39.84
2018-09-01T09:06:24.981Z,40.72
2018-09-01T09:07:24.975Z,39.16
2018-09-01T09:08:24.915Z,40.03
2018-09-01T09:09:24.872Z,40.13
2018-09-01T09:10:24.824Z,39.92
2018-09-01T09:11:24.846Z,39.92
2018-09-01T09:12:24.779Z,39.34
2018-09-01T09:13:24.708Z,38.77
2018-09-01T09:14:24.670Z,38.29
2018-09-01T09:15:24.629Z,37.88
2018-09-01T09:16:24.589Z,38.56
2018-09-01T09:17:24.580Z,38.93
2018-09-01T09:18:24.590Z,39.41
2018-09-01T09:19:24.473Z,39.70
2018-09-01T09:20:24.472Z,39.29
2018-09-01T09:21:24.394Z,39.84
2018-09-01T09:22:24.357Z,40.40
2018-09-01T09:23:24.317Z,40.77
2018-09-01T09:24:24.276Z,40.46
2018-09-01T09:25:24.269Z,40.34
2018-09-01T09:26:24.196Z,40.92
2018-09-01T09:27:24.161Z,41.77
2018-09-01T09:28:24.165Z,41.87
2018-09-01T09:29:24.080Z,42.60
2018-09-01T09:30:24.040Z,43.47
2018-09-01T09:31:23.998Z,43.26
2018-09-01T09:32:23.956Z,43.54
2018-09-01T09:33:23.948Z,44.03
2018-09-01T09:34:23.936Z,43.18
2018-09-01T09:35:23.842Z,42.55
2018-09-01T09:36:23.797Z,41.87
2018-09-01T09:37:23.789Z,41.58
2018-09-01T09:38:23.716Z,41.85
2018-09-01T09:39:23.678Z,41.39
2018-09-01T09:40:23.635Z,41.67
2018-09-01T09:41:23.596Z,41.70
2018-09-01T09:42:23.607Z,41.79
2018-09-01T09:43:23.515Z,41.70
2018-09-01T09:44:23.474Z,40.63
2018-09-01T09:45:23.432Z,41.29
2018-09-01T09:46:23.396Z,41.19
2018-09-01T09:47:23.403Z,41.27
2018-09-01T09:48:23.313Z,40.90
2018-09-01T09:49:23.273Z,40.71
2018-09-01T09:50:23.237Z,40.34
2018-09-01T09:51:23.205Z,40.17
2018-09-01T09:52:23.202Z,39.39
2018-09-01T09:53:23.118Z,38.15
2018-09-01T09:54:23.075Z,38.15
2018-09-01T09:55:23.033Z,37.94
2018-09-01T09:56:22.992Z,38.02
2018-09-01T09:57:22.980Z,38.58
2018-09-01T09:58:23.071Z,38.78
2018-09-01T09:59:22.912Z,39.36
2018-09-01T10:00:22.827Z,39.55
2018-09-01T10:01:22.788Z,39.36
2018-09-01T10:02:22.756Z,38.21
2018-09-01T10:03:22.707Z,38.21
2018-09-01T10:04:22.700Z,38.04
2018-09-01T10:05:22.634Z,37.09
2018-09-01T10:06:22.587Z,36.62
2018-09-01T10:07:22.546Z,35.96
2018-09-01T10:08:22.559Z,36.06
2018-09-01T10:09:22.465Z,36.16
2018-09-01T10:10:22.432Z,35.78
2018-09-01T10:11:22.386Z,35.51
2018-09-01T10:12:22.346Z,35.03
2018-09-01T10:13:22.352Z,34.81
2018-09-01T10:14:22.268Z,35.01
2018-09-01T10:15:22.227Z,35.19
2018-09-01T10:16:22.185Z,35.36
2018-09-01T10:17:22.153Z,35.94
2018-09-01T10:18:22.142Z,35.75
2018-09-01T10:19:22.068Z,35.66
2018-09-01T10:20:22.135Z,36.70
2018-09-01T10:21:22.020Z,35.93
2018-09-01T10:22:21.949Z,36.78
2018-09-01T10:23:21.908Z,37.73
2018-09-01T10:24:21.867Z,37.82
2018-09-01T10:25:21.860Z,37.62
2018-09-01T10:26:21.787Z,38.39
2018-09-01T10:27:21.750Z,38.41
2018-09-01T10:28:21.739Z,38.04
2018-09-01T10:29:21.675Z,38.23
2018-09-01T10:30:21.628Z,37.46
2018-09-01T10:31:21.629Z,37.92
2018-09-01T10:32:21.547Z,37.63
2018-09-01T10:33:21.507Z,37.71
2018-09-01T10:34:21.467Z,38.20
2018-09-01T10:35:21.428Z,38.66
2018-09-01T10:36:21.420Z,38.93
2018-09-01T10:37:21.346Z,39.61
2018-09-01T10:38:21.330Z,39.80
2018-09-01T10:39:21.267Z,39.82
2018-09-01T10:40:21.227Z,39.94
2018-09-01T10:41:21.218Z,38.79
2018-09-01T10:42:21.188Z,38.33
2018-09-01T10:43:21.109Z,37.94
2018-09-01T10:44:21.064Z,37.92
2018-09-01T10:45:21.027Z,38.02
2018-09-01T10:46:21.000Z,38.10
2018-09-01T10:47:20.976Z,38.48
2018-09-01T10:48:20.912Z,38.66
2018-09-01T10:49:20.862Z,38.66
2018-09-01T10:50:20.822Z,39.32
2018-09-01T10:51:20.783Z,39.22
2018-09-01T10:52:20.778Z,39.32
2018-09-01T10:53:20.704Z,39.99
2018-09-01T10:54:20.663Z,39.61
2018-09-01T10:55:20.626Z,40.45
2018-09-01T10:56:20.612Z,40.55
2018-09-01T10:57:20.541Z,40.45
2018-09-01T10:58:20.499Z,40.65
2018-09-01T10:59:20.573Z,40.55
2018-09-01T11:00:20.417Z,41.03
2018-09-01T11:01:20.377Z,41.03
2018-09-01T11:02:20.337Z,41.02
2018-09-01T11:03:20.298Z,40.82
2018-09-01T11:04:20.287Z,41.11
2018-09-01T11:05:20.223Z,41.20
2018-09-01T11:06:20.173Z,41.88
2018-09-01T11:07:20.131Z,41.30
2018-09-01T11:08:20.090Z,41.20
2018-09-01T11:09:20.086Z,41.50
2018-09-01T11:10:20.012Z,41.78
2018-09-01T11:11:19.967Z,41.81
2018-09-01T11:12:19.926Z,41.36
2018-09-01T11:13:19.887Z,40.42
2018-09-01T11:14:19.879Z,39.67
2018-09-01T11:15:19.802Z,38.53
2018-09-01T11:16:19.815Z,37.57
2018-09-01T11:17:19.720Z,37.79
2018-09-01T11:18:19.682Z,37.21
2018-09-01T11:19:19.645Z,37.30
2018-09-01T11:20:19.674Z,36.91
2018-09-01T11:21:19.591Z,36.72
2018-09-01T11:22:19.554Z,35.64
2018-09-01T11:23:19.483Z,36.70
2018-09-01T11:24:19.438Z,36.60
2018-09-01T11:25:19.399Z,36.30
2018-09-01T11:26:19.358Z,36.49
2018-09-01T11:27:19.376Z,36.57
2018-09-01T11:28:19.280Z,37.54
2018-09-01T11:29:19.241Z,38.00
2018-09-01T11:30:19.197Z,37.62
2018-09-01T11:31:19.158Z,37.90
2018-09-01T11:32:19.150Z,38.00
2018-09-01T11:33:19.079Z,38.08
2018-09-01T11:34:19.039Z,38.18
2018-09-01T11:35:18.996Z,38.37
2018-09-01T11:36:18.954Z,38.37
2018-09-01T11:37:18.951Z,38.25
2018-09-01T11:38:18.878Z,38.74
2018-09-01T11:39:18.834Z,39.51
2018-09-01T11:40:18.854Z,38.76
2018-09-01T11:41:18.752Z,38.68
2018-09-01T11:42:18.724Z,38.70
2018-09-01T11:43:18.874Z,38.53
2018-09-01T11:44:18.631Z,38.13
2018-09-01T11:45:18.593Z,37.75
2018-09-01T11:46:18.552Z,37.85
2018-09-01T11:47:18.512Z,37.54
2018-09-01T11:48:18.508Z,37.63
2018-09-01T11:49:18.430Z,38.10
2018-09-01T11:50:18.390Z,38.58
2018-09-01T11:51:18.349Z,37.90
2018-09-01T11:52:18.328Z,38.85
2018-09-01T11:53:18.418Z,38.46
2018-09-01T11:54:18.227Z,39.12
2018-09-01T11:55:18.191Z,39.78
2018-09-01T11:56:18.148Z,39.97
2018-09-01T11:57:18.109Z,40.17
2018-09-01T11:58:18.124Z,40.07
2018-09-01T11:59:18.032Z,40.36
2018-09-01T12:00:17.984Z,39.51
2018-09-01T12:01:17.942Z,38.95
2018-09-01T12:02:17.958Z,39.04
2018-09-01T12:03:17.862Z,38.20
2018-09-01T12:04:17.823Z,38.29
2018-09-01T12:05:17.783Z,37.63
2018-09-01T12:06:17.758Z,37.26
2018-09-01T12:07:17.737Z,36.58
2018-09-01T12:08:17.690Z,35.91
2018-09-01T12:09:17.663Z,35.72
2018-09-01T12:10:17.583Z,35.91
2018-09-01T12:11:17.541Z,36.20
2018-09-01T12:12:17.498Z,36.86
2018-09-01T12:13:17.495Z,37.15
2018-09-01T12:14:17.418Z,37.52
2018-09-01T12:15:17.423Z,37.62
2018-09-01T12:16:17.334Z,37.71
2018-09-01T12:17:17.378Z,37.42
2018-09-01T12:18:17.255Z,37.90
2018-09-01T12:19:17.215Z,37.63
2018-09-01T12:20:17.172Z,37.15
2018-09-01T12:21:17.132Z,37.34
2018-09-01T12:22:17.178Z,37.15
2018-09-01T12:23:17.054Z,36.86
2018-09-01T12:24:17.012Z,36.96
2018-09-01T12:25:16.972Z,37.05
2018-09-01T12:26:16.929Z,36.76
2018-09-01T12:27:16.925Z,37.24
2018-09-01T12:28:17.042Z,37.04
2018-09-01T12:29:16.806Z,37.04
2018-09-01T12:30:16.768Z,37.71
2018-09-01T12:31:16.727Z,37.90
2018-09-01T12:32:16.688Z,37.88
2018-09-01T12:33:16.675Z,37.30
2018-09-01T12:34:16.604Z,37.38
2018-09-01T12:35:16.601Z,37.87
2018-09-01T12:36:16.607Z,38.35
2018-09-01T12:37:16.528Z,38.25
2018-09-01T12:38:16.445Z,38.16
2018-09-01T12:39:16.404Z,38.16
2018-09-01T12:40:16.364Z,38.08
2018-09-01T12:41:16.369Z,38.10
2018-09-01T12:42:16.280Z,37.54
2018-09-01T12:43:16.237Z,36.86
2018-09-01T12:44:16.199Z,36.78
2018-09-01T12:45:16.160Z,35.83
2018-09-01T12:46:16.150Z,35.04
2018-09-01T12:47:16.074Z,35.64
2018-09-01T12:48:16.069Z,35.44
2018-09-01T12:49:16.000Z,34.97
2018-09-01T12:50:15.982Z,35.66
2018-09-01T12:51:15.915Z,34.57
2018-09-01T12:52:15.873Z,34.96